createdAt,value
2022-09-13T00:01:01.679Z,84.59
2022-09-13T00:03:28.573Z,85.11
2022-09-13T00:05:55.517Z,84.90
2022-09-13T00:08:22.350Z,84.59
2022-09-13T00:10:49.191Z,84.34
2022-09-13T00:13:17.281Z,87.52
2022-09-13T00:15:46.071Z,87.30
2022-09-13T00:18:13.121Z,86.64
2022-09-13T00:20:40.113Z,86.45
2022-09-13T00:23:06.636Z,86.26
2022-09-13T00:25:33.326Z,86.05
2022-09-13T00:27:59.873Z,87.05
2022-09-13T00:30:26.414Z,85.65
2022-09-13T00:32:52.983Z,85.80
2022-09-13T00:35:19.522Z,86.59
2022-09-13T00:37:46.185Z,85.14
2022-09-13T00:40:12.754Z,85.32
2022-09-13T00:42:39.409Z,85.26
2022-09-13T00:45:12.236Z,85.43
2022-09-13T00:47:40.664Z,84.75
2022-09-13T00:50:22.627Z,85.94
2022-09-13T00:53:02.958Z,85.48
2022-09-13T00:55:35.762Z,85.14
2022-09-13T00:58:08.657Z,86.36
2022-09-13T01:00:36.456Z,86.61
2022-09-13T01:03:06.890Z,86.13
2022-09-13T01:05:38.916Z,87.29
2022-09-13T01:08:12.726Z,86.87
2022-09-13T01:10:41.770Z,86.47
2022-09-13T01:13:18.864Z,86.04
2022-09-13T01:15:46.448Z,86.71
2022-09-13T01:18:13.278Z,86.97
2022-09-13T01:20:53.958Z,87.34
2022-09-13T01:23:57.591Z,87.53
2022-09-13T01:26:42.577Z,87.35
2022-09-13T01:29:37.087Z,87.01
2022-09-13T01:32:27.912Z,87.39
2022-09-13T01:35:00.302Z,87.28
2022-09-13T01:37:42.392Z,86.76
2022-09-13T01:40:17.385Z,86.81
2022-09-13T01:42:47.255Z,87.33
2022-09-13T01:45:37.053Z,87.22
2022-09-13T01:48:14.218Z,87.05
2022-09-13T01:50:47.623Z,86.71
2022-09-13T01:53:32.796Z,87.23
2022-09-13T01:56:05.805Z,87.48
2022-09-13T01:58:42.061Z,87.84
2022-09-13T02:01:21.267Z,87.40
2022-09-13T02:04:17.996Z,87.86
2022-09-13T02:07:01.114Z,87.58
2022-09-13T02:09:31.323Z,87.47
2022-09-13T02:12:06.397Z,87.11
2022-09-13T02:14:40.157Z,87.60
2022-09-13T02:17:18.585Z,87.16
2022-09-13T02:19:51.720Z,87.45
2022-09-13T02:22:23.761Z,87.73
2022-09-13T02:24:57.428Z,87.90
2022-09-13T02:27:32.369Z,87.92
2022-09-13T02:30:04.778Z,87.84
2022-09-13T02:32:36.183Z,87.84
2022-09-13T02:35:10.941Z,88.25
2022-09-13T02:37:40.166Z,87.92
2022-09-13T02:40:14.141Z,88.77
2022-09-13T02:42:50.368Z,88.87
2022-09-13T02:45:18.527Z,88.54
2022-09-13T02:47:58.176Z,89.57
2022-09-13T02:50:33.513Z,88.25
2022-09-13T02:53:18.315Z,88.51
2022-09-13T02:56:00.019Z,88.18
2022-09-13T02:58:42.927Z,88.81
2022-09-13T03:01:09.654Z,87.92
2022-09-13T03:03:36.589Z,88.02
2022-09-13T03:06:03.644Z,87.99
2022-09-13T03:08:30.668Z,88.21
2022-09-13T03:11:07.879Z,87.81
2022-09-13T03:14:19.107Z,89.93
2022-09-13T03:16:48.415Z,88.64
2022-09-13T03:19:29.752Z,88.69
2022-09-13T03:22:38.062Z,89.20
2022-09-13T03:25:12.656Z,88.70
2022-09-13T03:27:52.822Z,89.07
2022-09-13T03:30:19.900Z,88.97
2022-09-13T03:32:50.967Z,89.11
2022-09-13T03:35:20.838Z,91.47
2022-09-13T03:37:53.634Z,91.69
2022-09-13T03:40:45.755Z,91.25
2022-09-13T03:43:25.932Z,89.93
2022-09-13T03:45:57.075Z,90.96
2022-09-13T03:48:24.044Z,90.67
2022-09-13T03:50:50.780Z,90.90
2022-09-13T03:53:23.379Z,89.87
2022-09-13T03:55:50.027Z,90.43
2022-09-13T03:58:19.344Z,90.99
2022-09-13T04:00:46.332Z,91.08
2022-09-13T04:03:14.245Z,92.86
2022-09-13T04:05:40.913Z,92.05
2022-09-13T04:08:08.542Z,91.78
2022-09-13T04:10:38.824Z,91.62
2022-09-13T04:13:05.419Z,91.52
2022-09-13T04:15:32.062Z,91.59
2022-09-13T04:17:58.722Z,92.06
2022-09-13T04:20:25.942Z,92.49
2022-09-13T04:22:53.437Z,92.77
2022-09-13T04:25:22.175Z,92.93
2022-09-13T04:27:49.336Z,92.63
2022-09-13T04:30:15.953Z,92.79
2022-09-13T04:32:44.236Z,92.22
2022-09-13T04:35:11.873Z,91.70
2022-09-13T04:37:39.057Z,92.98
2022-09-13T04:40:10.038Z,92.98
2022-09-13T04:42:36.757Z,94.03
2022-09-13T04:45:06.389Z,93.67
2022-09-13T04:47:33.272Z,94.58
2022-09-13T04:49:59.758Z,94.08
2022-09-13T04:52:26.379Z,95.53
2022-09-13T04:54:52.875Z,94.68
2022-09-13T04:57:19.490Z,95.33
2022-09-13T04:59:46.049Z,95.60
2022-09-13T05:02:12.620Z,95.10
2022-09-13T05:04:39.133Z,95.86
2022-09-13T05:07:05.749Z,94.68
2022-09-13T05:09:32.279Z,95.24
2022-09-13T05:11:58.828Z,94.65
2022-09-13T05:14:25.463Z,94.58
2022-09-13T05:16:52.337Z,94.06
2022-09-13T05:19:18.886Z,94.62
2022-09-13T05:21:45.569Z,94.26
2022-09-13T05:24:12.247Z,93.81
2022-09-13T05:26:39.048Z,94.55
2022-09-13T05:29:05.691Z,94.81
2022-09-13T05:31:35.777Z,94.38
2022-09-13T05:34:14.576Z,95.10
2022-09-13T05:36:41.647Z,95.29
2022-09-13T05:39:29.736Z,94.59
2022-09-13T05:42:00.285Z,95.02
2022-09-13T05:44:26.809Z,94.72
2022-09-13T05:46:53.311Z,95.01
2022-09-13T05:49:19.853Z,94.09
2022-09-13T05:51:46.381Z,94.85
2022-09-13T05:54:13.354Z,94.07
2022-09-13T05:56:40.084Z,93.15
2022-09-13T05:59:06.859Z,92.98
2022-09-13T06:01:33.379Z,93.01
2022-09-13T06:04:00.060Z,93.43
2022-09-13T06:06:27.575Z,94.98
2022-09-13T06:08:57.836Z,95.57
2022-09-13T06:11:26.309Z,95.24
2022-09-13T06:13:53.685Z,95.18
2022-09-13T06:16:20.626Z,95.28
2022-09-13T06:18:47.196Z,93.67
2022-09-13T06:21:19.849Z,91.21
2022-09-13T06:23:48.104Z,89.75
2022-09-13T06:26:16.892Z,89.24
2022-09-13T06:28:43.663Z,89.41
2022-09-13T06:31:13.295Z,88.97
2022-09-13T06:33:42.565Z,88.46
2022-09-13T06:36:19.878Z,88.49
2022-09-13T06:38:48.903Z,89.99
2022-09-13T06:41:18.824Z,90.63
2022-09-13T06:43:46.016Z,90.14
2022-09-13T06:46:21.538Z,89.64
2022-09-13T06:48:51.172Z,88.96
2022-09-13T06:51:20.156Z,89.09
2022-09-13T06:53:48.516Z,88.41
2022-09-13T06:56:21.003Z,88.32
2022-09-13T06:58:50.017Z,88.08
2022-09-13T07:01:33.380Z,87.67
2022-09-13T07:04:05.907Z,88.70
2022-09-13T07:06:35.228Z,87.22
2022-09-13T07:09:04.505Z,86.73
2022-09-13T07:11:33.953Z,86.66
2022-09-13T07:14:01.003Z,85.57
2022-09-13T07:16:30.039Z,85.85
2022-09-13T07:19:01.784Z,85.87
2022-09-13T07:21:29.128Z,85.49
2022-09-13T07:23:56.978Z,85.38
2022-09-13T07:26:24.087Z,84.29
2022-09-13T07:28:53.939Z,83.32
2022-09-13T07:31:44.777Z,83.13
2022-09-13T07:34:16.656Z,83.53
2022-09-13T07:36:43.591Z,83.18
2022-09-13T07:39:14.983Z,82.62
2022-09-13T07:41:42.492Z,80.09
2022-09-13T07:44:13.024Z,81.28
2022-09-13T07:46:41.660Z,80.05
2022-09-13T07:49:08.368Z,80.63
2022-09-13T07:51:39.689Z,79.66
2022-09-13T07:54:12.212Z,79.61
2022-09-13T07:56:40.903Z,79.20
2022-09-13T07:59:12.610Z,78.44
2022-09-13T08:01:41.937Z,78.28
2022-09-13T08:04:12.863Z,78.43
2022-09-13T08:06:40.823Z,77.35
2022-09-13T08:09:09.509Z,76.38
2022-09-13T08:11:40.274Z,76.77
2022-09-13T08:14:09.963Z,76.76
2022-09-13T08:16:36.799Z,77.22
2022-09-13T08:19:04.721Z,76.78
2022-09-13T08:21:36.960Z,76.63
2022-09-13T08:24:05.312Z,75.44
2022-09-13T08:26:33.577Z,75.53
2022-09-13T08:29:02.470Z,75.47
2022-09-13T08:31:30.045Z,74.80
2022-09-13T08:33:57.708Z,73.59
2022-09-13T08:36:25.412Z,73.63
2022-09-13T08:38:54.714Z,73.71
2022-09-13T08:41:43.839Z,72.29
2022-09-13T08:44:23.809Z,72.61
2022-09-13T08:46:51.076Z,72.07
2022-09-13T08:49:26.260Z,72.35
2022-09-13T08:52:12.907Z,71.97
2022-09-13T08:54:39.390Z,71.89
2022-09-13T08:57:53.231Z,70.79
2022-09-13T09:00:43.582Z,69.71
2022-09-13T09:03:19.627Z,69.33
2022-09-13T09:05:49.307Z,69.35
2022-09-13T09:08:31.259Z,69.45
2022-09-13T09:11:02.850Z,69.73
2022-09-13T09:13:35.251Z,69.22
2022-09-13T09:16:16.964Z,68.61
2022-09-13T09:18:46.151Z,67.98
2022-09-13T09:21:21.964Z,67.06
2022-09-13T09:23:54.234Z,67.15
2022-09-13T09:26:20.811Z,67.61
2022-09-13T09:29:25.659Z,66.45
2022-09-13T09:32:09.394Z,65.61
2022-09-13T09:35:00.199Z,65.19
2022-09-13T09:37:29.904Z,63.82
2022-09-13T09:40:07.788Z,63.92
2022-09-13T09:42:44.636Z,63.47
2022-09-13T09:45:27.817Z,63.62
2022-09-13T09:47:56.780Z,64.75
2022-09-13T09:50:31.031Z,64.49
2022-09-13T09:53:08.710Z,63.90
2022-09-13T09:55:46.903Z,61.49
2022-09-13T09:58:16.979Z,62.47
2022-09-13T10:00:58.063Z,61.82
2022-09-13T10:03:27.776Z,61.12
2022-09-13T10:06:05.076Z,60.54
2022-09-13T10:08:35.283Z,62.26
2022-09-13T10:11:02.207Z,61.70
2022-09-13T10:13:32.010Z,62.23
2022-09-13T10:16:02.912Z,61.08
2022-09-13T10:18:49.945Z,60.85
2022-09-13T10:21:19.364Z,61.68
2022-09-13T10:23:47.471Z,61.35
2022-09-13T10:26:19.201Z,61.35
2022-09-13T10:28:56.801Z,60.26
2022-09-13T10:31:30.484Z,60.33
2022-09-13T10:34:36.034Z,59.53
2022-09-13T10:37:12.767Z,58.76
2022-09-13T10:40:09.715Z,59.54
2022-09-13T10:42:36.648Z,58.94
2022-09-13T10:45:08.932Z,58.27
2022-09-13T10:47:45.630Z,58.93
2022-09-13T10:50:24.463Z,59.13
2022-09-13T10:52:53.062Z,58.72
2022-09-13T10:55:19.533Z,58.60
2022-09-13T10:57:48.292Z,57.36
2022-09-13T11:00:32.476Z,57.55
2022-09-13T11:03:13.734Z,56.98
2022-09-13T11:05:43.284Z,57.24
2022-09-13T11:08:28.121Z,56.18
2022-09-13T11:11:23.534Z,56.58
2022-09-13T11:14:03.281Z,54.54
2022-09-13T11:17:00.012Z,54.10
2022-09-13T11:19:45.026Z,54.72
2022-09-13T11:22:27.854Z,54.71
2022-09-13T11:25:31.822Z,54.40
2022-09-13T11:28:20.082Z,53.81
2022-09-13T11:31:11.038Z,53.78
2022-09-13T11:33:55.904Z,53.89
2022-09-13T11:36:34.466Z,52.63
2022-09-13T11:39:17.288Z,53.61
2022-09-13T11:41:48.219Z,54.06
2022-09-13T11:44:36.597Z,53.13
2022-09-13T11:47:41.307Z,52.78
2022-09-13T11:50:33.855Z,53.20
2022-09-13T11:53:10.384Z,52.66
2022-09-13T11:55:47.799Z,51.69
2022-09-13T11:58:25.819Z,52.00
2022-09-13T12:00:59.206Z,51.57
2022-09-13T12:03:42.410Z,50.24
2022-09-13T12:06:43.026Z,46.11
2022-09-13T12:09:39.552Z,46.16
2022-09-13T12:12:10.707Z,47.18
2022-09-13T12:14:49.429Z,46.28
2022-09-13T12:17:28.054Z,45.33
2022-09-13T12:19:57.814Z,45.59
2022-09-13T12:22:30.989Z,44.78
2022-09-13T12:25:03.527Z,44.27
2022-09-13T12:27:56.845Z,44.19
2022-09-13T12:30:31.223Z,43.60
2022-09-13T12:32:59.189Z,43.37
2022-09-13T12:35:32.414Z,42.51
2022-09-13T12:38:38.455Z,43.13
2022-09-13T12:41:20.220Z,43.21
2022-09-13T12:43:59.852Z,43.07
2022-09-13T12:46:52.591Z,41.85
2022-09-13T12:49:44.949Z,41.79
2022-09-13T12:52:45.264Z,41.66
2022-09-13T12:55:46.103Z,40.56
2022-09-13T12:58:41.659Z,41.36
2022-09-13T13:01:30.805Z,40.94
2022-09-13T13:04:19.257Z,42.45
2022-09-13T13:06:45.712Z,41.98
2022-09-13T13:09:44.639Z,41.22
2022-09-13T13:12:30.013Z,42.54
2022-09-13T13:14:57.025Z,43.01
2022-09-13T13:17:45.279Z,42.88
2022-09-13T13:20:49.716Z,42.01
2022-09-13T13:23:35.187Z,42.86
2022-09-13T13:26:20.332Z,42.84
2022-09-13T13:28:51.960Z,42.55
2022-09-13T13:31:24.830Z,42.43
2022-09-13T13:34:14.595Z,41.71
2022-09-13T13:36:41.061Z,42.19
2022-09-13T13:39:25.731Z,41.71
2022-09-13T13:42:13.167Z,42.22
2022-09-13T13:44:42.661Z,41.01
2022-09-13T13:47:09.130Z,41.91
2022-09-13T13:49:38.765Z,40.74
2022-09-13T13:52:11.970Z,40.71
2022-09-13T13:54:58.664Z,40.82
2022-09-13T13:57:31.131Z,40.52
2022-09-13T14:00:19.786Z,40.78
2022-09-13T14:02:49.176Z,40.34
2022-09-13T14:05:21.811Z,40.11
2022-09-13T14:08:23.795Z,40.17
2022-09-13T14:11:01.619Z,38.65
2022-09-13T14:13:34.232Z,39.84
2022-09-13T14:16:05.484Z,39.74
2022-09-13T14:18:44.716Z,40.06
2022-09-13T14:21:22.375Z,39.09
2022-09-13T14:23:49.538Z,39.10
2022-09-13T14:26:16.455Z,39.28
2022-09-13T14:28:43.076Z,39.21
2022-09-13T14:31:17.631Z,38.04
2022-09-13T14:33:44.224Z,38.42
2022-09-13T14:36:20.556Z,38.46
2022-09-13T14:38:55.467Z,38.62
2022-09-13T14:41:31.290Z,38.54
2022-09-13T14:44:21.034Z,38.70
2022-09-13T14:47:22.199Z,37.85
2022-09-13T14:50:14.182Z,37.45
2022-09-13T14:52:54.828Z,37.97
2022-09-13T14:55:30.202Z,37.65
2022-09-13T14:58:04.349Z,37.76
2022-09-13T15:00:35.139Z,37.88
2022-09-13T15:03:11.521Z,38.37
2022-09-13T15:05:39.483Z,39.06
2022-09-13T15:08:33.825Z,38.12
2022-09-13T15:11:02.582Z,38.34
2022-09-13T15:13:29.483Z,38.71
2022-09-13T15:15:56.170Z,38.64
2022-09-13T15:18:36.217Z,38.28
2022-09-13T15:21:14.464Z,38.08
2022-09-13T15:23:43.348Z,39.14
2022-09-13T15:26:27.655Z,37.74
2022-09-13T15:29:03.839Z,38.77
2022-09-13T15:31:32.862Z,39.20
2022-09-13T15:34:17.692Z,39.32
2022-09-13T15:36:45.756Z,38.46
2022-09-13T15:39:22.192Z,38.03
2022-09-13T15:41:57.263Z,38.38
2022-09-13T15:44:24.586Z,38.65
2022-09-13T15:46:56.917Z,38.35
2022-09-13T15:49:27.345Z,38.44
2022-09-13T15:51:59.364Z,38.21
2022-09-13T15:54:36.704Z,38.11
2022-09-13T15:57:07.871Z,38.55
2022-09-13T15:59:34.641Z,39.80
2022-09-13T16:02:22.117Z,40.81
2022-09-13T16:04:49.148Z,42.19
2022-09-13T16:07:16.470Z,42.70
2022-09-13T16:09:44.557Z,42.69
2022-09-13T16:12:11.135Z,43.12
2022-09-13T16:14:37.646Z,43.29
2022-09-13T16:17:10.583Z,43.84
2022-09-13T16:19:37.199Z,43.84
2022-09-13T16:22:03.856Z,44.21
2022-09-13T16:24:31.208Z,44.08
2022-09-13T16:27:01.547Z,45.08
2022-09-13T16:29:28.622Z,45.24
2022-09-13T16:31:55.260Z,45.36
2022-09-13T16:34:21.928Z,45.69
2022-09-13T16:36:48.389Z,45.58
2022-09-13T16:39:14.897Z,46.42
2022-09-13T16:41:41.469Z,46.45
2022-09-13T16:44:08.890Z,46.69
2022-09-13T16:46:35.677Z,47.17
2022-09-13T16:49:02.219Z,47.31
2022-09-13T16:51:28.857Z,47.25
2022-09-13T16:53:55.424Z,47.49
2022-09-13T16:56:24.760Z,47.65
2022-09-13T16:58:52.479Z,48.00
2022-09-13T17:01:27.799Z,48.14
2022-09-13T17:03:55.876Z,48.50
2022-09-13T17:06:25.358Z,48.59
2022-09-13T17:09:02.985Z,48.54
2022-09-13T17:11:32.518Z,49.25
2022-09-13T17:14:00.894Z,49.18
2022-09-13T17:16:31.368Z,49.39
2022-09-13T17:19:00.335Z,49.79
2022-09-13T17:21:28.280Z,49.80
2022-09-13T17:23:55.371Z,49.92
2022-09-13T17:26:23.031Z,50.67
2022-09-13T17:28:49.601Z,50.74
2022-09-13T17:31:16.214Z,50.91
2022-09-13T17:33:42.783Z,51.18
2022-09-13T17:36:13.640Z,51.56
2022-09-13T17:38:41.208Z,51.33
2022-09-13T17:41:16.340Z,52.48
2022-09-13T17:43:43.756Z,51.92
2022-09-13T17:46:16.408Z,52.14
2022-09-13T17:48:43.934Z,52.38
2022-09-13T17:51:12.628Z,52.64
2022-09-13T17:53:41.726Z,52.90
2022-09-13T17:56:08.658Z,53.12
2022-09-13T17:58:36.277Z,53.10
2022-09-13T18:01:06.784Z,53.36
2022-09-13T18:03:33.783Z,53.84
2022-09-13T18:06:01.497Z,53.94
2022-09-13T18:08:29.831Z,54.29
2022-09-13T18:11:14.203Z,54.33
2022-09-13T18:13:42.765Z,54.73
2022-09-13T18:16:10.533Z,55.16
2022-09-13T18:18:43.095Z,55.51
2022-09-13T18:21:10.283Z,55.33
2022-09-13T18:23:36.894Z,55.61
2022-09-13T18:26:10.071Z,55.53
2022-09-13T18:28:38.198Z,55.68
2022-09-13T18:31:06.962Z,56.00
2022-09-13T18:33:33.777Z,56.80
2022-09-13T18:36:06.453Z,56.80
2022-09-13T18:38:35.452Z,57.49
2022-09-13T18:41:23.901Z,57.18
2022-09-13T18:43:55.494Z,57.46
2022-09-13T18:46:24.995Z,57.60
2022-09-13T18:48:57.453Z,58.44
2022-09-13T18:51:28.056Z,58.76
2022-09-13T18:53:55.800Z,59.05
2022-09-13T18:56:26.143Z,59.41
2022-09-13T18:58:53.755Z,59.95
2022-09-13T19:01:25.990Z,59.28
2022-09-13T19:03:52.645Z,60.06
2022-09-13T19:06:31.097Z,59.23
2022-09-13T19:08:59.196Z,60.02
2022-09-13T19:11:45.761Z,60.77
2022-09-13T19:14:25.073Z,60.57
2022-09-13T19:16:54.131Z,60.97
2022-09-13T19:19:20.677Z,61.46
2022-09-13T19:21:47.448Z,61.14
2022-09-13T19:24:19.367Z,61.44
2022-09-13T19:26:48.620Z,61.45
2022-09-13T19:29:17.534Z,62.03
2022-09-13T19:31:48.183Z,61.54
2022-09-13T19:34:15.852Z,62.09
2022-09-13T19:36:44.269Z,61.65
2022-09-13T19:39:11.683Z,61.60
2022-09-13T19:41:39.263Z,61.69
2022-09-13T19:44:07.104Z,61.79
2022-09-13T19:46:40.417Z,62.81
2022-09-13T19:49:08.580Z,62.49
2022-09-13T19:51:37.593Z,63.17
2022-09-13T19:54:06.086Z,62.99
2022-09-13T19:56:35.916Z,63.46
2022-09-13T19:59:03.445Z,63.48
2022-09-13T20:01:33.730Z,63.62
2022-09-13T20:04:03.121Z,63.46
2022-09-13T20:06:34.476Z,63.99
2022-09-13T20:09:01.637Z,63.96
2022-09-13T20:11:29.158Z,63.69
2022-09-13T20:13:59.266Z,64.34
2022-09-13T20:16:32.176Z,64.87
2022-09-13T20:18:58.849Z,64.13
2022-09-13T20:21:27.502Z,64.37
2022-09-13T20:23:56.118Z,64.77
2022-09-13T20:26:27.005Z,65.16
2022-09-13T20:28:57.530Z,65.34
2022-09-13T20:31:24.855Z,65.06
2022-09-13T20:34:01.421Z,66.12
2022-09-13T20:36:31.004Z,65.52
2022-09-13T20:39:03.012Z,66.34
2022-09-13T20:41:31.622Z,65.98
2022-09-13T20:44:01.786Z,65.73
2022-09-13T20:46:31.314Z,66.33
2022-09-13T20:48:58.320Z,66.53
2022-09-13T20:51:25.556Z,66.32
2022-09-13T20:53:57.343Z,67.00
2022-09-13T20:56:24.789Z,67.21
2022-09-13T20:58:57.466Z,66.86
2022-09-13T21:01:25.065Z,66.42
2022-09-13T21:03:53.864Z,68.05
2022-09-13T21:06:22.174Z,67.96
2022-09-13T21:08:50.291Z,68.05
2022-09-13T21:11:22.189Z,67.38
2022-09-13T21:13:59.224Z,66.47
2022-09-13T21:16:31.867Z,67.02
2022-09-13T21:19:00.762Z,67.92
2022-09-13T21:21:30.135Z,67.71
2022-09-13T21:23:57.529Z,66.88
2022-09-13T21:26:26.917Z,68.02
2022-09-13T21:28:54.088Z,68.07
2022-09-13T21:31:25.179Z,68.00
2022-09-13T21:33:57.788Z,68.19
2022-09-13T21:36:25.826Z,68.80
2022-09-13T21:38:54.422Z,68.95
2022-09-13T21:41:22.486Z,68.75
2022-09-13T21:43:49.519Z,68.76
2022-09-13T21:46:18.986Z,68.38
2022-09-13T21:48:48.451Z,68.43
2022-09-13T21:51:22.580Z,68.98
2022-09-13T21:53:57.550Z,69.85
2022-09-13T21:56:26.735Z,69.54
2022-09-13T21:59:01.635Z,70.05
2022-09-13T22:01:34.496Z,70.24
2022-09-13T22:04:02.120Z,70.59
2022-09-13T22:06:33.542Z,70.75
2022-09-13T22:09:03.179Z,69.58
2022-09-13T22:11:32.201Z,69.96
2022-09-13T22:13:59.723Z,70.34
2022-09-13T22:16:31.927Z,70.64
2022-09-13T22:19:05.439Z,70.66
2022-09-13T22:21:38.129Z,70.82
2022-09-13T22:24:05.827Z,70.70
2022-09-13T22:26:35.239Z,70.58
2022-09-13T22:29:01.653Z,70.16
2022-09-13T22:31:33.230Z,71.33
2022-09-13T22:34:01.444Z,71.68
2022-09-13T22:36:28.588Z,71.93
2022-09-13T22:38:55.525Z,71.57
2022-09-13T22:41:23.347Z,71.10
2022-09-13T22:43:50.202Z,70.42
2022-09-13T22:46:22.621Z,71.03
2022-09-13T22:48:49.684Z,70.92
2022-09-13T22:51:18.288Z,70.46
2022-09-13T22:53:47.316Z,69.95
2022-09-13T22:56:15.211Z,70.40
2022-09-13T22:58:42.231Z,71.35
2022-09-13T23:01:11.483Z,71.04
2022-09-13T23:03:39.980Z,70.30
2022-09-13T23:06:16.118Z,69.73
2022-09-13T23:08:42.727Z,70.25
2022-09-13T23:11:17.859Z,70.76
2022-09-13T23:13:46.920Z,71.04
2022-09-13T23:16:25.540Z,71.27
2022-09-13T23:18:53.440Z,71.81
2022-09-13T23:21:21.740Z,71.97
2022-09-13T23:23:48.714Z,73.15
2022-09-13T23:26:18.268Z,71.98
2022-09-13T23:28:46.670Z,73.26
2022-09-13T23:31:15.393Z,74.62
2022-09-13T23:33:44.479Z,74.35
2022-09-13T23:36:12.968Z,75.29
2022-09-13T23:38:41.209Z,74.70
2022-09-13T23:41:07.808Z,75.88
2022-09-13T23:43:34.594Z,76.66
2022-09-13T23:46:01.219Z,77.51
2022-09-13T23:48:28.154Z,77.33
2022-09-13T23:51:07.128Z,78.96
2022-09-13T23:53:35.365Z,78.37
